sensor_id;sensor_type;location;lat;lon;timestamp;P1;durP1;ratioP1;P2;durP2;ratioP2
60352;SDS011;46196;52.970;6.954;2023-03-19T00:02:21;23.35;;;15.02;;
60352;SDS011;46196;52.970;6.954;2023-03-19T00:04:46;25.58;;;15.40;;
60352;SDS011;46196;52.970;6.954;2023-03-19T00:07:13;27.17;;;15.73;;
60352;SDS011;46196;52.970;6.954;2023-03-19T00:09:40;27.33;;;15.85;;
60352;SDS011;46196;52.970;6.954;2023-03-19T00:12:06;28.92;;;15.52;;
60352;SDS011;46196;52.970;6.954;2023-03-19T00:14:33;31.13;;;17.63;;
60352;SDS011;46196;52.970;6.954;2023-03-19T00:16:59;30.05;;;17.67;;
60352;SDS011;46196;52.970;6.954;2023-03-19T00:19:25;28.15;;;16.90;;
60352;SDS011;46196;52.970;6.954;2023-03-19T00:21:51;30.73;;;17.33;;
60352;SDS011;46196;52.970;6.954;2023-03-19T00:24:17;32.30;;;18.63;;
60352;SDS011;46196;52.970;6.954;2023-03-19T00:26:43;30.73;;;17.88;;
60352;SDS011;46196;52.970;6.954;2023-03-19T00:29:09;31.55;;;17.77;;
60352;SDS011;46196;52.970;6.954;2023-03-19T00:31:35;30.77;;;18.35;;
60352;SDS011;46196;52.970;6.954;2023-03-19T00:34:01;31.45;;;17.58;;
60352;SDS011;46196;52.970;6.954;2023-03-19T00:36:28;32.00;;;18.17;;
60352;SDS011;46196;52.970;6.954;2023-03-19T00:38:54;32.72;;;19.48;;
60352;SDS011;46196;52.970;6.954;2023-03-19T00:41:20;34.47;;;18.73;;
60352;SDS011;46196;52.970;6.954;2023-03-19T00:43:49;35.35;;;19.77;;
60352;SDS011;46196;52.970;6.954;2023-03-19T00:46:18;32.83;;;19.35;;
60352;SDS011;46196;52.970;6.954;2023-03-19T00:48:43;35.47;;;18.85;;
60352;SDS011;46196;52.970;6.954;2023-03-19T00:51:09;33.05;;;19.30;;
60352;SDS011;46196;52.970;6.954;2023-03-19T00:53:38;34.35;;;19.15;;
60352;SDS011;46196;52.970;6.954;2023-03-19T00:56:06;35.17;;;19.50;;
60352;SDS011;46196;52.970;6.954;2023-03-19T00:58:33;33.15;;;19.33;;
60352;SDS011;46196;52.970;6.954;2023-03-19T01:00:59;30.67;;;17.48;;
60352;SDS011;46196;52.970;6.954;2023-03-19T01:03:26;32.13;;;19.65;;
60352;SDS011;46196;52.970;6.954;2023-03-19T01:05:52;34.95;;;19.42;;
60352;SDS011;46196;52.970;6.954;2023-03-19T01:08:18;34.35;;;19.13;;
60352;SDS011;46196;52.970;6.954;2023-03-19T01:10:44;31.85;;;18.98;;
60352;SDS011;46196;52.970;6.954;2023-03-19T01:13:10;35.38;;;19.20;;
60352;SDS011;46196;52.970;6.954;2023-03-19T01:15:37;36.78;;;21.05;;
60352;SDS011;46196;52.970;6.954;2023-03-19T01:18:03;36.50;;;20.75;;
60352;SDS011;46196;52.970;6.954;2023-03-19T01:20:30;37.20;;;20.52;;
60352;SDS011;46196;52.970;6.954;2023-03-19T01:22:56;35.78;;;20.33;;
60352;SDS011;46196;52.970;6.954;2023-03-19T01:25:21;32.90;;;19.23;;
60352;SDS011;46196;52.970;6.954;2023-03-19T01:27:47;38.47;;;21.15;;
60352;SDS011;46196;52.970;6.954;2023-03-19T01:30:14;33.75;;;19.33;;
60352;SDS011;46196;52.970;6.954;2023-03-19T01:32:40;35.88;;;20.10;;
60352;SDS011;46196;52.970;6.954;2023-03-19T01:35:06;34.03;;;18.90;;
60352;SDS011;46196;52.970;6.954;2023-03-19T01:37:32;35.25;;;19.73;;
60352;SDS011;46196;52.970;6.954;2023-03-19T01:39:58;36.75;;;19.92;;
60352;SDS011;46196;52.970;6.954;2023-03-19T01:42:23;33.88;;;19.42;;
60352;SDS011;46196;52.970;6.954;2023-03-19T01:44:49;35.50;;;19.30;;
60352;SDS011;46196;52.970;6.954;2023-03-19T01:47:23;34.55;;;19.40;;
60352;SDS011;46196;52.970;6.954;2023-03-19T01:50:02;37.72;;;20.30;;
60352;SDS011;46196;52.970;6.954;2023-03-19T01:52:30;34.15;;;21.02;;
60352;SDS011;46196;52.970;6.954;2023-03-19T01:54:58;34.30;;;19.30;;
60352;SDS011;46196;52.970;6.954;2023-03-19T01:59:54;37.58;;;19.85;;
60352;SDS011;46196;52.970;6.954;2023-03-19T02:02:31;31.90;;;19.45;;
60352;SDS011;46196;52.970;6.954;2023-03-19T02:05:06;33.83;;;19.20;;
60352;SDS011;46196;52.970;6.954;2023-03-19T02:07:38;35.53;;;20.05;;
60352;SDS011;46196;52.970;6.954;2023-03-19T02:10:08;34.80;;;19.40;;
60352;SDS011;46196;52.970;6.954;2023-03-19T02:12:36;33.72;;;20.80;;
60352;SDS011;46196;52.970;6.954;2023-03-19T02:15:02;38.00;;;20.83;;
60352;SDS011;46196;52.970;6.954;2023-03-19T02:17:29;34.42;;;20.67;;
60352;SDS011;46196;52.970;6.954;2023-03-19T02:19:56;34.92;;;19.45;;
60352;SDS011;46196;52.970;6.954;2023-03-19T02:22:40;36.95;;;19.73;;
60352;SDS011;46196;52.970;6.954;2023-03-19T02:25:19;49.05;;;24.58;;
60352;SDS011;46196;52.970;6.954;2023-03-19T02:27:51;52.67;;;27.47;;
60352;SDS011;46196;52.970;6.954;2023-03-19T02:30:28;38.33;;;21.05;;
60352;SDS011;46196;52.970;6.954;2023-03-19T02:32:56;36.07;;;20.07;;
60352;SDS011;46196;52.970;6.954;2023-03-19T02:35:22;34.35;;;20.23;;
60352;SDS011;46196;52.970;6.954;2023-03-19T02:37:47;34.83;;;19.35;;
60352;SDS011;46196;52.970;6.954;2023-03-19T02:40:15;29.83;;;16.83;;
60352;SDS011;46196;52.970;6.954;2023-03-19T02:42:46;33.60;;;18.05;;
60352;SDS011;46196;52.970;6.954;2023-03-19T02:45:12;33.28;;;17.90;;
60352;SDS011;46196;52.970;6.954;2023-03-19T02:47:38;38.22;;;18.50;;
60352;SDS011;46196;52.970;6.954;2023-03-19T02:50:05;32.75;;;18.25;;
60352;SDS011;46196;52.970;6.954;2023-03-19T02:52:32;34.78;;;19.52;;
60352;SDS011;46196;52.970;6.954;2023-03-19T02:54:58;35.80;;;20.40;;
60352;SDS011;46196;52.970;6.954;2023-03-19T02:57:24;34.28;;;18.73;;
60352;SDS011;46196;52.970;6.954;2023-03-19T02:59:50;36.90;;;19.48;;
60352;SDS011;46196;52.970;6.954;2023-03-19T03:02:16;33.97;;;18.50;;
60352;SDS011;46196;52.970;6.954;2023-03-19T03:04:41;32.67;;;19.05;;
60352;SDS011;46196;52.970;6.954;2023-03-19T03:07:07;36.42;;;18.95;;
60352;SDS011;46196;52.970;6.954;2023-03-19T03:09:33;32.65;;;17.63;;
60352;SDS011;46196;52.970;6.954;2023-03-19T03:11:59;33.70;;;17.52;;
60352;SDS011;46196;52.970;6.954;2023-03-19T03:14:25;28.05;;;17.42;;
60352;SDS011;46196;52.970;6.954;2023-03-19T03:16:51;31.95;;;16.92;;
60352;SDS011;46196;52.970;6.954;2023-03-19T03:19:17;28.48;;;17.15;;
60352;SDS011;46196;52.970;6.954;2023-03-19T03:21:44;27.90;;;16.35;;
60352;SDS011;46196;52.970;6.954;2023-03-19T03:24:10;25.77;;;14.85;;
60352;SDS011;46196;52.970;6.954;2023-03-19T03:26:36;26.08;;;14.35;;
60352;SDS011;46196;52.970;6.954;2023-03-19T03:29:03;22.55;;;13.85;;
60352;SDS011;46196;52.970;6.954;2023-03-19T03:31:30;22.33;;;13.18;;
60352;SDS011;46196;52.970;6.954;2023-03-19T03:33:56;26.90;;;14.05;;
60352;SDS011;46196;52.970;6.954;2023-03-19T03:36:21;22.45;;;12.30;;
60352;SDS011;46196;52.970;6.954;2023-03-19T03:38:47;21.85;;;12.60;;
60352;SDS011;46196;52.970;6.954;2023-03-19T03:41:13;24.05;;;13.23;;
60352;SDS011;46196;52.970;6.954;2023-03-19T03:43:39;19.98;;;11.77;;
60352;SDS011;46196;52.970;6.954;2023-03-19T03:46:05;22.00;;;12.98;;
60352;SDS011;46196;52.970;6.954;2023-03-19T03:48:33;21.38;;;12.63;;
60352;SDS011;46196;52.970;6.954;2023-03-19T03:50:59;22.95;;;13.13;;
60352;SDS011;46196;52.970;6.954;2023-03-19T03:53:25;18.25;;;10.35;;
60352;SDS011;46196;52.970;6.954;2023-03-19T03:55:51;16.98;;;10.95;;
60352;SDS011;46196;52.970;6.954;2023-03-19T03:58:17;20.48;;;10.80;;
60352;SDS011;46196;52.970;6.954;2023-03-19T04:00:43;17.88;;;11.15;;
60352;SDS011;46196;52.970;6.954;2023-03-19T04:03:08;17.63;;;11.10;;
60352;SDS011;46196;52.970;6.954;2023-03-19T04:05:34;17.27;;;9.95;;
60352;SDS011;46196;52.970;6.954;2023-03-19T04:08:01;16.20;;;10.13;;
60352;SDS011;46196;52.970;6.954;2023-03-19T04:10:28;15.82;;;10.57;;
60352;SDS011;46196;52.970;6.954;2023-03-19T04:12:54;17.55;;;10.45;;
60352;SDS011;46196;52.970;6.954;2023-03-19T04:15:20;18.23;;;10.40;;
60352;SDS011;46196;52.970;6.954;2023-03-19T04:17:46;14.82;;;9.43;;
60352;SDS011;46196;52.970;6.954;2023-03-19T04:20:12;15.57;;;8.88;;
60352;SDS011;46196;52.970;6.954;2023-03-19T04:25:08;14.25;;;7.80;;
60352;SDS011;46196;52.970;6.954;2023-03-19T04:27:34;14.27;;;7.93;;
60352;SDS011;46196;52.970;6.954;2023-03-19T04:30:00;14.98;;;8.18;;
60352;SDS011;46196;52.970;6.954;2023-03-19T04:32:26;13.38;;;7.97;;
60352;SDS011;46196;52.970;6.954;2023-03-19T04:34:52;14.10;;;7.72;;
60352;SDS011;46196;52.970;6.954;2023-03-19T04:37:18;15.20;;;8.30;;
60352;SDS011;46196;52.970;6.954;2023-03-19T04:39:44;14.77;;;7.93;;
60352;SDS011;46196;52.970;6.954;2023-03-19T04:42:10;11.18;;;8.02;;
60352;SDS011;46196;52.970;6.954;2023-03-19T04:44:36;11.95;;;8.65;;
60352;SDS011;46196;52.970;6.954;2023-03-19T04:47:03;12.73;;;8.25;;
60352;SDS011;46196;52.970;6.954;2023-03-19T04:49:29;12.00;;;8.05;;
60352;SDS011;46196;52.970;6.954;2023-03-19T04:51:55;14.02;;;8.10;;
60352;SDS011;46196;52.970;6.954;2023-03-19T04:54:22;16.73;;;8.63;;
60352;SDS011;46196;52.970;6.954;2023-03-19T04:56:49;14.68;;;8.55;;
60352;SDS011;46196;52.970;6.954;2023-03-19T04:59:15;11.15;;;7.78;;
60352;SDS011;46196;52.970;6.954;2023-03-19T05:01:41;14.85;;;8.02;;
60352;SDS011;46196;52.970;6.954;2023-03-19T05:04:07;13.43;;;7.97;;
60352;SDS011;46196;52.970;6.954;2023-03-19T05:06:33;11.32;;;7.65;;
60352;SDS011;46196;52.970;6.954;2023-03-19T05:09:00;11.82;;;7.28;;
60352;SDS011;46196;52.970;6.954;2023-03-19T05:11:27;12.75;;;6.65;;
60352;SDS011;46196;52.970;6.954;2023-03-19T05:13:52;10.43;;;7.05;;
60352;SDS011;46196;52.970;6.954;2023-03-19T05:16:18;12.25;;;7.18;;
60352;SDS011;46196;52.970;6.954;2023-03-19T05:18:44;12.18;;;7.20;;
60352;SDS011;46196;52.970;6.954;2023-03-19T05:21:10;18.23;;;9.68;;
60352;SDS011;46196;52.970;6.954;2023-03-19T05:23:37;11.20;;;7.10;;
60352;SDS011;46196;52.970;6.954;2023-03-19T05:26:03;12.38;;;7.80;;
60352;SDS011;46196;52.970;6.954;2023-03-19T05:28:30;10.20;;;6.82;;
60352;SDS011;46196;52.970;6.954;2023-03-19T05:30:56;12.48;;;6.85;;
60352;SDS011;46196;52.970;6.954;2023-03-19T05:33:22;21.70;;;11.77;;
60352;SDS011;46196;52.970;6.954;2023-03-19T05:35:48;20.27;;;10.73;;
60352;SDS011;46196;52.970;6.954;2023-03-19T05:38:15;18.20;;;10.75;;
60352;SDS011;46196;52.970;6.954;2023-03-19T05:40:41;10.52;;;6.68;;
60352;SDS011;46196;52.970;6.954;2023-03-19T05:43:07;26.95;;;12.38;;
60352;SDS011;46196;52.970;6.954;2023-03-19T05:45:34;13.88;;;8.15;;
60352;SDS011;46196;52.970;6.954;2023-03-19T05:48:01;14.43;;;8.45;;
60352;SDS011;46196;52.970;6.954;2023-03-19T05:50:28;9.82;;;7.22;;
60352;SDS011;46196;52.970;6.954;2023-03-19T05:52:54;12.02;;;6.80;;
60352;SDS011;46196;52.970;6.954;2023-03-19T05:55:20;9.77;;;6.63;;
60352;SDS011;46196;52.970;6.954;2023-03-19T05:57:46;10.30;;;6.85;;
60352;SDS011;46196;52.970;6.954;2023-03-19T06:00:12;14.80;;;7.80;;
60352;SDS011;46196;52.970;6.954;2023-03-19T06:02:38;11.90;;;7.32;;
60352;SDS011;46196;52.970;6.954;2023-03-19T06:05:04;11.05;;;6.72;;
60352;SDS011;46196;52.970;6.954;2023-03-19T06:07:31;10.63;;;7.15;;
60352;SDS011;46196;52.970;6.954;2023-03-19T06:09:57;12.65;;;6.97;;
60352;SDS011;46196;52.970;6.954;2023-03-19T06:12:23;12.90;;;7.43;;
60352;SDS011;46196;52.970;6.954;2023-03-19T06:14:49;11.02;;;7.70;;
60352;SDS011;46196;52.970;6.954;2023-03-19T06:17:15;12.68;;;7.57;;
60352;SDS011;46196;52.970;6.954;2023-03-19T06:19:41;12.13;;;7.60;;
60352;SDS011;46196;52.970;6.954;2023-03-19T06:22:07;12.43;;;6.97;;
60352;SDS011;46196;52.970;6.954;2023-03-19T06:24:33;11.60;;;7.45;;
60352;SDS011;46196;52.970;6.954;2023-03-19T06:26:59;13.88;;;7.95;;
60352;SDS011;46196;52.970;6.954;2023-03-19T06:29:26;12.93;;;7.65;;
60352;SDS011;46196;52.970;6.954;2023-03-19T06:31:52;13.20;;;7.63;;
60352;SDS011;46196;52.970;6.954;2023-03-19T06:34:18;12.00;;;8.30;;
60352;SDS011;46196;52.970;6.954;2023-03-19T06:36:44;28.80;;;14.82;;
60352;SDS011;46196;52.970;6.954;2023-03-19T06:39:09;28.70;;;13.95;;
60352;SDS011;46196;52.970;6.954;2023-03-19T06:41:36;13.68;;;8.25;;
60352;SDS011;46196;52.970;6.954;2023-03-19T06:44:02;12.45;;;7.82;;
60352;SDS011;46196;52.970;6.954;2023-03-19T06:46:28;12.88;;;7.97;;
60352;SDS011;46196;52.970;6.954;2023-03-19T06:48:56;13.02;;;7.80;;
60352;SDS011;46196;52.970;6.954;2023-03-19T06:51:22;12.25;;;7.85;;
60352;SDS011;46196;52.970;6.954;2023-03-19T06:53:48;14.75;;;7.93;;
60352;SDS011;46196;52.970;6.954;2023-03-19T06:56:14;11.80;;;7.88;;
60352;SDS011;46196;52.970;6.954;2023-03-19T06:58:40;12.98;;;8.52;;
60352;SDS011;46196;52.970;6.954;2023-03-19T07:01:06;13.85;;;7.97;;
60352;SDS011;46196;52.970;6.954;2023-03-19T07:03:33;12.02;;;7.97;;
60352;SDS011;46196;52.970;6.954;2023-03-19T07:05:58;11.50;;;7.70;;
60352;SDS011;46196;52.970;6.954;2023-03-19T07:08:25;18.13;;;8.68;;
60352;SDS011;46196;52.970;6.954;2023-03-19T07:11:01;12.45;;;8.43;;
60352;SDS011;46196;52.970;6.954;2023-03-19T07:13:28;12.15;;;8.15;;
60352;SDS011;46196;52.970;6.954;2023-03-19T07:15:54;12.93;;;8.02;;
60352;SDS011;46196;52.970;6.954;2023-03-19T07:18:20;15.43;;;9.00;;
60352;SDS011;46196;52.970;6.954;2023-03-19T07:20:46;14.15;;;9.00;;
60352;SDS011;46196;52.970;6.954;2023-03-19T07:23:12;16.85;;;8.70;;
60352;SDS011;46196;52.970;6.954;2023-03-19T07:25:38;13.10;;;8.38;;
60352;SDS011;46196;52.970;6.954;2023-03-19T07:28:04;14.98;;;9.05;;
60352;SDS011;46196;52.970;6.954;2023-03-19T07:30:31;14.40;;;8.38;;
60352;SDS011;46196;52.970;6.954;2023-03-19T07:32:57;11.98;;;7.90;;
60352;SDS011;46196;52.970;6.954;2023-03-19T07:35:23;14.50;;;9.02;;
60352;SDS011;46196;52.970;6.954;2023-03-19T07:37:49;14.30;;;9.00;;
60352;SDS011;46196;52.970;6.954;2023-03-19T07:40:15;14.68;;;8.95;;
60352;SDS011;46196;52.970;6.954;2023-03-19T07:42:41;15.13;;;9.25;;
60352;SDS011;46196;52.970;6.954;2023-03-19T07:45:07;13.57;;;8.98;;
60352;SDS011;46196;52.970;6.954;2023-03-19T07:47:33;17.60;;;8.85;;
60352;SDS011;46196;52.970;6.954;2023-03-19T07:49:59;18.05;;;9.45;;
60352;SDS011;46196;52.970;6.954;2023-03-19T07:52:26;16.38;;;9.18;;
60352;SDS011;46196;52.970;6.954;2023-03-19T07:54:52;15.38;;;9.27;;
60352;SDS011;46196;52.970;6.954;2023-03-19T07:57:18;17.45;;;10.15;;
60352;SDS011;46196;52.970;6.954;2023-03-19T07:59:45;16.02;;;9.32;;
60352;SDS011;46196;52.970;6.954;2023-03-19T08:02:11;16.30;;;10.10;;
60352;SDS011;46196;52.970;6.954;2023-03-19T08:04:37;14.70;;;9.77;;
60352;SDS011;46196;52.970;6.954;2023-03-19T08:07:03;22.02;;;11.82;;
60352;SDS011;46196;52.970;6.954;2023-03-19T08:09:31;26.92;;;14.05;;
60352;SDS011;46196;52.970;6.954;2023-03-19T08:11:57;23.15;;;14.40;;
60352;SDS011;46196;52.970;6.954;2023-03-19T08:14:23;18.48;;;10.90;;
60352;SDS011;46196;52.970;6.954;2023-03-19T08:16:48;18.92;;;11.52;;
60352;SDS011;46196;52.970;6.954;2023-03-19T08:19:15;16.90;;;9.45;;
60352;SDS011;46196;52.970;6.954;2023-03-19T08:21:41;14.52;;;9.80;;
60352;SDS011;46196;52.970;6.954;2023-03-19T08:24:07;18.38;;;11.05;;
60352;SDS011;46196;52.970;6.954;2023-03-19T08:26:33;18.70;;;10.93;;
60352;SDS011;46196;52.970;6.954;2023-03-19T08:28:59;19.25;;;11.02;;
60352;SDS011;46196;52.970;6.954;2023-03-19T08:31:25;18.42;;;10.48;;
60352;SDS011;46196;52.970;6.954;2023-03-19T08:33:51;18.55;;;12.13;;
60352;SDS011;46196;52.970;6.954;2023-03-19T08:36:17;21.80;;;10.13;;
60352;SDS011;46196;52.970;6.954;2023-03-19T08:38:43;19.05;;;11.38;;
60352;SDS011;46196;52.970;6.954;2023-03-19T08:41:09;21.45;;;12.30;;
60352;SDS011;46196;52.970;6.954;2023-03-19T08:43:35;21.52;;;12.60;;
60352;SDS011;46196;52.970;6.954;2023-03-19T08:46:03;19.10;;;11.32;;
60352;SDS011;46196;52.970;6.954;2023-03-19T08:48:30;19.40;;;10.45;;
60352;SDS011;46196;52.970;6.954;2023-03-19T08:50:57;22.55;;;13.65;;
60352;SDS011;46196;52.970;6.954;2023-03-19T08:53:25;22.88;;;12.82;;
60352;SDS011;46196;52.970;6.954;2023-03-19T08:55:55;22.73;;;12.20;;
60352;SDS011;46196;52.970;6.954;2023-03-19T08:58:22;23.15;;;11.27;;
60352;SDS011;46196;52.970;6.954;2023-03-19T09:00:49;17.15;;;9.75;;
60352;SDS011;46196;52.970;6.954;2023-03-19T09:03:15;21.15;;;12.88;;
60352;SDS011;46196;52.970;6.954;2023-03-19T09:05:41;21.30;;;10.57;;
60352;SDS011;46196;52.970;6.954;2023-03-19T09:08:07;23.23;;;12.82;;
60352;SDS011;46196;52.970;6.954;2023-03-19T09:10:34;23.25;;;13.50;;
60352;SDS011;46196;52.970;6.954;2023-03-19T09:13:00;22.42;;;12.13;;
60352;SDS011;46196;52.970;6.954;2023-03-19T09:15:26;21.98;;;10.32;;
60352;SDS011;46196;52.970;6.954;2023-03-19T09:17:52;21.08;;;11.32;;
60352;SDS011;46196;52.970;6.954;2023-03-19T09:20:18;20.73;;;12.38;;
60352;SDS011;46196;52.970;6.954;2023-03-19T09:22:44;22.15;;;11.43;;
60352;SDS011;46196;52.970;6.954;2023-03-19T09:25:10;23.27;;;12.27;;
60352;SDS011;46196;52.970;6.954;2023-03-19T09:27:36;20.67;;;10.85;;
60352;SDS011;46196;52.970;6.954;2023-03-19T09:30:02;21.75;;;10.25;;
60352;SDS011;46196;52.970;6.954;2023-03-19T09:32:29;18.38;;;10.18;;
60352;SDS011;46196;52.970;6.954;2023-03-19T09:34:55;27.45;;;12.48;;
60352;SDS011;46196;52.970;6.954;2023-03-19T09:37:21;22.63;;;12.48;;
60352;SDS011;46196;52.970;6.954;2023-03-19T09:39:51;24.30;;;12.82;;
60352;SDS011;46196;52.970;6.954;2023-03-19T09:45:14;17.33;;;9.88;;
60352;SDS011;46196;52.970;6.954;2023-03-19T09:47:42;20.85;;;11.55;;
60352;SDS011;46196;52.970;6.954;2023-03-19T09:50:12;18.23;;;10.87;;
60352;SDS011;46196;52.970;6.954;2023-03-19T09:55:20;19.73;;;9.43;;
60352;SDS011;46196;52.970;6.954;2023-03-19T09:57:56;19.02;;;11.05;;
60352;SDS011;46196;52.970;6.954;2023-03-19T10:00:33;19.65;;;11.30;;
60352;SDS011;46196;52.970;6.954;2023-03-19T10:03:05;23.45;;;11.88;;
60352;SDS011;46196;52.970;6.954;2023-03-19T10:16:46;19.05;;;10.27;;
60352;SDS011;46196;52.970;6.954;2023-03-19T10:19:15;13.93;;;7.63;;
60352;SDS011;46196;52.970;6.954;2023-03-19T10:21:51;14.40;;;8.85;;
60352;SDS011;46196;52.970;6.954;2023-03-19T10:24:26;14.38;;;8.25;;
60352;SDS011;46196;52.970;6.954;2023-03-19T10:26:59;12.07;;;7.65;;
60352;SDS011;46196;52.970;6.954;2023-03-19T10:29:29;13.45;;;8.48;;
60352;SDS011;46196;52.970;6.954;2023-03-19T10:35:11;12.90;;;8.13;;
60352;SDS011;46196;52.970;6.954;2023-03-19T10:37:47;12.77;;;7.47;;
60352;SDS011;46196;52.970;6.954;2023-03-19T10:40:58;10.32;;;6.50;;
60352;SDS011;46196;52.970;6.954;2023-03-19T10:43:15;11.57;;;6.90;;
60352;SDS011;46196;52.970;6.954;2023-03-19T10:45:44;11.43;;;7.07;;
60352;SDS011;46196;52.970;6.954;2023-03-19T10:48:17;10.85;;;6.68;;
60352;SDS011;46196;52.970;6.954;2023-03-19T10:50:50;11.68;;;7.15;;
60352;SDS011;46196;52.970;6.954;2023-03-19T10:53:32;15.48;;;8.98;;
60352;SDS011;46196;52.970;6.954;2023-03-19T10:58:30;14.23;;;8.27;;
60352;SDS011;46196;52.970;6.954;2023-03-19T11:01:02;16.40;;;8.07;;
60352;SDS011;46196;52.970;6.954;2023-03-19T11:03:31;10.70;;;7.32;;
60352;SDS011;46196;52.970;6.954;2023-03-19T11:08:35;15.65;;;8.90;;
60352;SDS011;46196;52.970;6.954;2023-03-19T11:11:02;18.08;;;9.13;;
60352;SDS011;46196;52.970;6.954;2023-03-19T11:13:28;12.45;;;7.55;;
60352;SDS011;46196;52.970;6.954;2023-03-19T11:15:56;13.43;;;7.13;;
60352;SDS011;46196;52.970;6.954;2023-03-19T11:18:28;17.38;;;9.23;;
60352;SDS011;46196;52.970;6.954;2023-03-19T11:24:02;14.13;;;7.90;;
60352;SDS011;46196;52.970;6.954;2023-03-19T11:26:29;12.07;;;7.10;;
60352;SDS011;46196;52.970;6.954;2023-03-19T11:29:00;13.40;;;7.82;;
60352;SDS011;46196;52.970;6.954;2023-03-19T11:31:36;14.90;;;7.85;;
60352;SDS011;46196;52.970;6.954;2023-03-19T11:37:14;20.50;;;9.52;;
60352;SDS011;46196;52.970;6.954;2023-03-19T11:50:56;12.65;;;7.43;;
60352;SDS011;46196;52.970;6.954;2023-03-19T11:56:17;16.00;;;10.27;;
60352;SDS011;46196;52.970;6.954;2023-03-19T12:02:01;16.05;;;8.90;;
60352;SDS011;46196;52.970;6.954;2023-03-19T12:04:54;16.92;;;10.02;;
60352;SDS011;46196;52.970;6.954;2023-03-19T12:07:41;18.08;;;10.30;;
60352;SDS011;46196;52.970;6.954;2023-03-19T12:10:27;16.58;;;10.05;;
60352;SDS011;46196;52.970;6.954;2023-03-19T12:18:44;15.90;;;9.75;;
60352;SDS011;46196;52.970;6.954;2023-03-19T12:28:40;18.45;;;10.73;;
60352;SDS011;46196;52.970;6.954;2023-03-19T12:31:20;15.25;;;8.77;;
60352;SDS011;46196;52.970;6.954;2023-03-19T12:37:14;17.98;;;11.15;;
60352;SDS011;46196;52.970;6.954;2023-03-19T12:39:44;16.50;;;10.48;;
60352;SDS011;46196;52.970;6.954;2023-03-19T12:42:18;18.67;;;11.57;;
60352;SDS011;46196;52.970;6.954;2023-03-19T12:44:47;15.07;;;9.23;;
60352;SDS011;46196;52.970;6.954;2023-03-19T12:47:20;20.85;;;11.88;;
60352;SDS011;46196;52.970;6.954;2023-03-19T12:49:48;19.38;;;12.43;;
60352;SDS011;46196;52.970;6.954;2023-03-19T12:52:32;20.00;;;12.00;;
60352;SDS011;46196;52.970;6.954;2023-03-19T13:02:55;19.67;;;11.40;;
60352;SDS011;46196;52.970;6.954;2023-03-19T13:05:36;16.08;;;10.82;;
60352;SDS011;46196;52.970;6.954;2023-03-19T13:08:15;20.50;;;10.75;;
60352;SDS011;46196;52.970;6.954;2023-03-19T13:10:47;16.30;;;10.60;;
60352;SDS011;46196;52.970;6.954;2023-03-19T13:15:51;20.95;;;11.93;;
60352;SDS011;46196;52.970;6.954;2023-03-19T13:23:38;30.28;;;10.02;;
60352;SDS011;46196;52.970;6.954;2023-03-19T13:26:08;20.48;;;10.90;;
60352;SDS011;46196;52.970;6.954;2023-03-19T13:28:37;16.45;;;9.88;;
60352;SDS011;46196;52.970;6.954;2023-03-19T13:31:25;17.42;;;10.40;;
60352;SDS011;46196;52.970;6.954;2023-03-19T13:33:59;15.45;;;9.82;;
60352;SDS011;46196;52.970;6.954;2023-03-19T13:36:27;16.05;;;10.18;;
60352;SDS011;46196;52.970;6.954;2023-03-19T13:38:55;15.20;;;9.23;;
60352;SDS011;46196;52.970;6.954;2023-03-19T13:46:45;14.05;;;8.73;;
60352;SDS011;46196;52.970;6.954;2023-03-19T13:51:46;16.40;;;9.68;;
60352;SDS011;46196;52.970;6.954;2023-03-19T13:54:18;15.75;;;10.20;;
60352;SDS011;46196;52.970;6.954;2023-03-19T13:59:27;15.82;;;10.15;;
60352;SDS011;46196;52.970;6.954;2023-03-19T14:07:28;16.77;;;10.67;;
60352;SDS011;46196;52.970;6.954;2023-03-19T14:15:03;19.25;;;11.73;;
60352;SDS011;46196;52.970;6.954;2023-03-19T14:25:52;17.88;;;10.32;;
60352;SDS011;46196;52.970;6.954;2023-03-19T14:28:41;20.48;;;11.70;;
60352;SDS011;46196;52.970;6.954;2023-03-19T14:31:17;18.40;;;10.45;;
60352;SDS011;46196;52.970;6.954;2023-03-19T14:36:34;19.88;;;11.05;;
60352;SDS011;46196;52.970;6.954;2023-03-19T14:39:16;16.13;;;10.43;;
60352;SDS011;46196;52.970;6.954;2023-03-19T14:41:48;25.27;;;9.95;;
60352;SDS011;46196;52.970;6.954;2023-03-19T14:49:49;23.42;;;11.45;;
60352;SDS011;46196;52.970;6.954;2023-03-19T14:52:29;19.50;;;11.70;;
60352;SDS011;46196;52.970;6.954;2023-03-19T14:55:14;19.70;;;10.75;;
60352;SDS011;46196;52.970;6.954;2023-03-19T14:57:41;21.10;;;9.68;;
60352;SDS011;46196;52.970;6.954;2023-03-19T15:00:26;23.58;;;12.35;;
60352;SDS011;46196;52.970;6.954;2023-03-19T15:02:52;24.35;;;11.50;;
60352;SDS011;46196;52.970;6.954;2023-03-19T15:07:46;24.10;;;12.70;;
60352;SDS011;46196;52.970;6.954;2023-03-19T15:10:19;21.17;;;10.63;;
60352;SDS011;46196;52.970;6.954;2023-03-19T15:18:17;19.88;;;9.95;;
60352;SDS011;46196;52.970;6.954;2023-03-19T15:20:49;20.17;;;11.68;;
60352;SDS011;46196;52.970;6.954;2023-03-19T15:23:19;23.55;;;10.75;;
60352;SDS011;46196;52.970;6.954;2023-03-19T15:25:49;23.65;;;11.43;;
60352;SDS011;46196;52.970;6.954;2023-03-19T15:28:17;12.98;;;8.38;;
60352;SDS011;46196;52.970;6.954;2023-03-19T15:30:44;21.35;;;11.15;;
60352;SDS011;46196;52.970;6.954;2023-03-19T15:33:19;24.45;;;11.45;;
60352;SDS011;46196;52.970;6.954;2023-03-19T15:35:57;22.88;;;10.75;;
60352;SDS011;46196;52.970;6.954;2023-03-19T15:38:30;22.17;;;10.70;;
60352;SDS011;46196;52.970;6.954;2023-03-19T15:41:01;22.42;;;11.50;;
60352;SDS011;46196;52.970;6.954;2023-03-19T15:43:30;24.73;;;12.00;;
60352;SDS011;46196;52.970;6.954;2023-03-19T15:45:56;31.40;;;14.30;;
60352;SDS011;46196;52.970;6.954;2023-03-19T15:51:10;32.80;;;15.02;;
60352;SDS011;46196;52.970;6.954;2023-03-19T15:53:39;34.55;;;14.38;;
60352;SDS011;46196;52.970;6.954;2023-03-19T15:56:06;32.10;;;14.85;;
60352;SDS011;46196;52.970;6.954;2023-03-19T15:58:37;36.05;;;16.80;;
60352;SDS011;46196;52.970;6.954;2023-03-19T16:01:06;32.55;;;14.68;;
60352;SDS011;46196;52.970;6.954;2023-03-19T16:03:43;38.30;;;14.52;;
60352;SDS011;46196;52.970;6.954;2023-03-19T16:06:16;33.35;;;13.60;;
60352;SDS011;46196;52.970;6.954;2023-03-19T16:08:55;42.00;;;16.55;;
60352;SDS011;46196;52.970;6.954;2023-03-19T16:11:35;42.30;;;17.02;;
60352;SDS011;46196;52.970;6.954;2023-03-19T16:14:22;39.58;;;15.05;;
60352;SDS011;46196;52.970;6.954;2023-03-19T16:16:52;38.72;;;15.77;;
60352;SDS011;46196;52.970;6.954;2023-03-19T16:22:15;31.02;;;11.52;;
60352;SDS011;46196;52.970;6.954;2023-03-19T16:24:45;31.92;;;11.88;;
60352;SDS011;46196;52.970;6.954;2023-03-19T16:27:13;31.02;;;11.30;;
60352;SDS011;46196;52.970;6.954;2023-03-19T16:29:48;33.50;;;12.10;;
60352;SDS011;46196;52.970;6.954;2023-03-19T16:40:07;33.67;;;13.90;;
60352;SDS011;46196;52.970;6.954;2023-03-19T16:45:17;29.35;;;12.55;;
60352;SDS011;46196;52.970;6.954;2023-03-19T16:47:45;36.20;;;12.70;;
60352;SDS011;46196;52.970;6.954;2023-03-19T16:50:13;34.67;;;12.80;;
60352;SDS011;46196;52.970;6.954;2023-03-19T16:52:39;31.92;;;12.90;;
60352;SDS011;46196;52.970;6.954;2023-03-19T16:55:18;34.42;;;13.60;;
60352;SDS011;46196;52.970;6.954;2023-03-19T16:57:55;27.10;;;11.02;;
60352;SDS011;46196;52.970;6.954;2023-03-19T17:00:23;36.30;;;14.25;;
60352;SDS011;46196;52.970;6.954;2023-03-19T17:02:51;35.75;;;13.40;;